createdAt,value
2019-06-10T00:01:48.705Z,2.00
2019-06-10T00:04:16.132Z,1.77
2019-06-10T00:06:43.585Z,1.90
2019-06-10T00:09:11.837Z,1.70
2019-06-10T00:11:40.961Z,1.90
2019-06-10T00:14:07.399Z,1.73
2019-06-10T00:16:34.603Z,2.00
2019-06-10T00:19:04.843Z,1.80
2019-06-10T00:21:30.842Z,2.57
2019-06-10T00:23:57.476Z,2.70
2019-06-10T00:26:24.677Z,2.00
2019-06-10T00:28:52.123Z,1.80
2019-06-10T00:31:20.735Z,1.98
2019-06-10T00:33:47.033Z,1.92
2019-06-10T00:36:14.474Z,1.83
2019-06-10T00:38:41.905Z,1.80
2019-06-10T00:41:13.656Z,2.10
2019-06-10T00:43:36.877Z,2.00
2019-06-10T00:46:05.921Z,2.00
2019-06-10T00:48:32.531Z,2.20
2019-06-10T00:51:01.321Z,1.90
2019-06-10T00:53:26.747Z,2.03
2019-06-10T00:55:54.231Z,1.80
2019-06-10T00:58:21.861Z,1.77
2019-06-10T01:00:51.456Z,2.00
2019-06-10T01:03:16.616Z,2.10
2019-06-10T01:05:44.043Z,2.00
2019-06-10T01:08:15.135Z,1.90
2019-06-10T01:10:39.021Z,2.03
2019-06-10T01:13:07.310Z,2.33
2019-06-10T01:15:34.734Z,1.80
2019-06-10T01:18:03.438Z,2.13
2019-06-10T01:20:29.662Z,2.23
2019-06-10T01:22:57.079Z,2.03
2019-06-10T01:25:24.512Z,2.30
2019-06-10T01:27:51.937Z,2.30
2019-06-10T01:30:24.543Z,1.80
2019-06-10T01:32:46.871Z,2.00
2019-06-10T01:35:15.826Z,2.30
2019-06-10T01:37:42.691Z,2.23
2019-06-10T01:40:13.135Z,3.00
2019-06-10T01:42:37.616Z,2.03
2019-06-10T01:45:05.043Z,2.20
2019-06-10T01:47:33.440Z,2.00
2019-06-10T01:50:00.961Z,2.10
2019-06-10T01:52:28.391Z,2.27
2019-06-10T01:54:55.821Z,2.30
2019-06-10T01:57:23.244Z,2.20
2019-06-10T01:59:50.981Z,2.23
2019-06-10T02:02:19.338Z,2.20
2019-06-10T02:04:45.986Z,2.63
2019-06-10T02:07:15.572Z,2.00
2019-06-10T02:09:41.131Z,2.00
2019-06-10T02:12:09.857Z,2.30
2019-06-10T02:14:35.775Z,2.10
2019-06-10T02:17:03.223Z,2.33
2019-06-10T02:19:31.140Z,2.23
2019-06-10T02:21:58.114Z,2.27
2019-06-10T02:24:25.554Z,2.23
2019-06-10T02:26:53.009Z,2.03
2019-06-10T02:29:22.220Z,2.10
2019-06-10T02:31:47.904Z,2.00
2019-06-10T02:34:21.829Z,2.30
2019-06-10T02:36:44.894Z,2.00
2019-06-10T02:39:16.706Z,2.17
2019-06-10T02:41:39.568Z,2.30
2019-06-10T02:44:06.980Z,2.63
2019-06-10T02:46:36.216Z,2.10
2019-06-10T02:49:20.660Z,2.50
2019-06-10T02:51:32.217Z,2.07
2019-06-10T02:53:57.870Z,2.20
2019-06-10T02:56:30.863Z,2.20
2019-06-10T02:58:54.320Z,2.07
2019-06-10T03:01:28.344Z,2.40
2019-06-10T03:03:49.952Z,1.80
2019-06-10T03:06:17.981Z,2.13
2019-06-10T03:08:44.141Z,2.00
2019-06-10T03:11:14.102Z,2.37
2019-06-10T03:13:39.093Z,2.27
2019-06-10T03:16:06.532Z,2.70
2019-06-10T03:18:33.986Z,2.15
2019-06-10T03:21:02.674Z,2.20
2019-06-10T03:23:28.920Z,2.17
2019-06-10T03:25:59.732Z,2.57
2019-06-10T03:28:27.827Z,2.27
2019-06-10T03:30:58.776Z,2.10
2019-06-10T03:33:27.124Z,2.40
2019-06-10T03:35:49.527Z,2.20
2019-06-10T03:38:17.173Z,2.42
2019-06-10T03:40:44.468Z,2.10
2019-06-10T03:43:11.995Z,2.30
2019-06-10T03:45:39.335Z,2.03
2019-06-10T03:48:06.753Z,2.13
2019-06-10T03:50:34.232Z,2.40
2019-06-10T03:53:04.291Z,1.93
2019-06-10T03:55:29.185Z,2.20
2019-06-10T03:57:56.587Z,2.23
2019-06-10T04:00:25.610Z,2.30
2019-06-10T04:02:53.205Z,2.30
2019-06-10T04:05:19.461Z,2.40
2019-06-10T04:07:46.482Z,2.13
2019-06-10T04:10:13.924Z,2.33
2019-06-10T04:12:43.464Z,2.80
2019-06-10T04:15:08.895Z,2.53
2019-06-10T04:17:37.170Z,1.98
2019-06-10T04:20:11.680Z,2.33
2019-06-10T04:22:32.933Z,2.35
2019-06-10T04:24:59.519Z,2.40
2019-06-10T04:27:28.365Z,2.43
2019-06-10T04:29:55.137Z,2.50
2019-06-10T04:32:25.738Z,2.30
2019-06-10T04:34:52.853Z,2.10
2019-06-10T04:37:18.427Z,2.42
2019-06-10T04:39:45.854Z,2.45
2019-06-10T04:42:13.279Z,2.60
2019-06-10T04:44:42.307Z,2.60
2019-06-10T04:47:08.176Z,2.63
2019-06-10T04:49:35.648Z,2.40
2019-06-10T04:52:03.315Z,2.33
2019-06-10T04:54:33.071Z,2.20
2019-06-10T04:56:58.020Z,2.40
2019-06-10T04:59:27.578Z,2.80
2019-06-10T05:01:53.148Z,2.62
2019-06-10T05:04:21.638Z,2.50
2019-06-10T05:06:47.861Z,2.85
2019-06-10T05:09:16.040Z,2.40
2019-06-10T05:11:44.299Z,2.40
2019-06-10T05:14:13.321Z,2.57
2019-06-10T05:16:39.334Z,2.60
2019-06-10T05:19:06.763Z,2.50
2019-06-10T05:21:34.207Z,2.90
2019-06-10T05:24:02.902Z,2.37
2019-06-10T05:26:30.393Z,2.50
2019-06-10T05:28:56.577Z,2.30
2019-06-10T05:31:28.219Z,2.50
2019-06-10T05:33:53.499Z,5.20
2019-06-10T05:36:23.955Z,3.03
2019-06-10T05:38:49.325Z,2.70
2019-06-10T05:41:16.825Z,2.33
2019-06-10T05:43:44.263Z,2.70
2019-06-10T05:46:13.444Z,2.50
2019-06-10T05:48:39.210Z,2.70
2019-06-10T05:51:08.075Z,2.87
2019-06-10T05:53:35.656Z,2.60
2019-06-10T05:56:03.051Z,3.00
2019-06-10T05:58:32.729Z,3.10
2019-06-10T06:00:57.971Z,2.67
2019-06-10T06:03:25.746Z,3.17
2019-06-10T06:05:52.881Z,4.10
2019-06-10T06:08:22.676Z,3.53
2019-06-10T06:10:47.804Z,3.90
2019-06-10T06:13:15.211Z,4.23
2019-06-10T06:15:42.661Z,3.87
2019-06-10T06:18:10.897Z,4.33
2019-06-10T06:20:37.676Z,3.83
2019-06-10T06:23:05.011Z,4.33
2019-06-10T06:25:38.879Z,4.50
2019-06-10T06:27:59.959Z,4.30
2019-06-10T06:30:28.058Z,4.40
2019-06-10T06:32:54.842Z,3.70
2019-06-10T06:35:22.944Z,3.80
2019-06-10T06:37:53.926Z,4.07
2019-06-10T06:40:17.902Z,3.90
2019-06-10T06:42:45.382Z,3.70
2019-06-10T06:45:12.823Z,3.47
2019-06-10T06:47:43.503Z,3.53
2019-06-10T06:50:07.996Z,3.37
2019-06-10T06:53:10.235Z,3.23
2019-06-10T06:55:02.951Z,3.17
2019-06-10T06:57:33.287Z,3.27
2019-06-10T06:59:57.839Z,3.60
2019-06-10T07:02:25.285Z,3.03
2019-06-10T07:04:52.728Z,3.70
2019-06-10T07:07:22.099Z,3.40
2019-06-10T07:09:47.606Z,3.40
2019-06-10T07:12:15.050Z,3.50
2019-06-10T07:14:44.790Z,3.20
2019-06-10T07:17:12.437Z,3.10
2019-06-10T07:19:39.554Z,2.70
2019-06-10T07:22:12.230Z,2.90
2019-06-10T07:24:34.248Z,2.53
2019-06-10T07:26:59.854Z,2.40
2019-06-10T07:29:27.294Z,2.35
2019-06-10T07:31:54.850Z,2.57
2019-06-10T07:34:22.361Z,2.60
2019-06-10T07:36:52.022Z,2.70
2019-06-10T07:39:17.179Z,2.50
2019-06-10T07:41:47.732Z,2.47
2019-06-10T07:44:12.538Z,2.50
2019-06-10T07:46:39.565Z,2.57
2019-06-10T07:49:07.053Z,2.77
2019-06-10T07:51:35.838Z,2.97
2019-06-10T07:54:03.162Z,2.97
2019-06-10T07:56:33.779Z,2.50
2019-06-10T07:58:56.848Z,2.60
2019-06-10T08:01:24.311Z,3.03
2019-06-10T08:03:52.650Z,2.87
2019-06-10T08:06:19.244Z,2.97
2019-06-10T08:08:47.306Z,2.40
2019-06-10T08:11:14.283Z,3.70
2019-06-10T08:13:45.669Z,2.80
2019-06-10T08:16:09.839Z,2.57
2019-06-10T08:18:49.998Z,2.70
2019-06-10T08:21:04.801Z,3.13
2019-06-10T08:23:32.899Z,2.90
2019-06-10T08:25:59.671Z,2.80
2019-06-10T08:28:27.119Z,2.77
2019-06-10T08:30:54.564Z,2.55
2019-06-10T08:33:22.718Z,2.65
2019-06-10T08:35:59.171Z,2.90
2019-06-10T08:38:16.897Z,2.50
2019-06-10T08:40:45.376Z,2.70
2019-06-10T08:43:13.341Z,2.83
2019-06-10T08:45:39.206Z,2.43
2019-06-10T08:48:06.659Z,2.50
2019-06-10T08:50:34.113Z,2.70
2019-06-10T08:53:13.848Z,3.53
2019-06-10T08:55:29.066Z,2.70
2019-06-10T08:57:56.519Z,3.10
2019-06-10T09:00:25.611Z,2.90
2019-06-10T09:02:53.827Z,3.08
2019-06-10T09:05:18.931Z,3.00
2019-06-10T09:07:49.602Z,2.63
2019-06-10T09:10:13.898Z,2.77
2019-06-10T09:12:45.453Z,3.28
2019-06-10T09:15:09.679Z,3.00
2019-06-10T09:17:37.151Z,2.57
2019-06-10T09:20:05.468Z,2.80
2019-06-10T09:22:32.925Z,2.77
2019-06-10T09:25:02.749Z,2.47
2019-06-10T09:27:27.933Z,2.67
2019-06-10T09:29:55.689Z,3.00
2019-06-10T09:32:23.471Z,2.87
2019-06-10T09:34:54.775Z,2.70
2019-06-10T09:37:17.783Z,2.60
2019-06-10T09:39:51.829Z,2.97
2019-06-10T09:42:14.646Z,2.73
2019-06-10T09:44:45.130Z,2.60
2019-06-10T09:47:08.611Z,2.90
2019-06-10T09:49:36.045Z,2.83
2019-06-10T09:52:03.653Z,3.13
2019-06-10T09:54:33.329Z,2.90
2019-06-10T09:56:58.388Z,2.83
2019-06-10T09:59:25.848Z,2.60
2019-06-10T10:01:58.107Z,2.70
2019-06-10T10:04:23.521Z,2.93
2019-06-10T10:06:54.348Z,3.00
2019-06-10T10:09:17.126Z,2.80
2019-06-10T10:11:47.119Z,2.97
2019-06-10T10:14:15.824Z,3.03
2019-06-10T10:16:39.579Z,3.50
2019-06-10T10:19:07.056Z,2.93
2019-06-10T10:21:34.917Z,2.97
2019-06-10T10:24:08.052Z,2.97
2019-06-10T10:26:29.569Z,3.00
2019-06-10T10:28:57.255Z,3.10
2019-06-10T10:31:25.894Z,2.70
2019-06-10T10:33:53.560Z,2.97
2019-06-10T10:36:22.635Z,2.57
2019-06-10T10:38:48.860Z,2.83
2019-06-10T10:41:15.922Z,4.00
2019-06-10T10:43:46.674Z,2.83
2019-06-10T10:46:13.966Z,2.77
2019-06-10T10:48:38.341Z,3.20
2019-06-10T10:51:05.822Z,3.43
2019-06-10T10:53:33.340Z,2.70
2019-06-10T10:56:02.285Z,3.50
2019-06-10T10:58:28.259Z,3.03
2019-06-10T11:00:57.856Z,2.92
2019-06-10T11:03:23.685Z,2.95
2019-06-10T11:05:57.867Z,3.25
2019-06-10T11:08:19.821Z,3.60
2019-06-10T11:10:48.206Z,3.90
2019-06-10T11:13:15.407Z,3.30
2019-06-10T11:15:43.431Z,3.60
2019-06-10T11:18:12.389Z,3.60
2019-06-10T11:20:37.500Z,3.30
2019-06-10T11:23:04.969Z,3.10
2019-06-10T11:25:33.250Z,3.10
2019-06-10T11:27:59.891Z,3.23
2019-06-10T11:30:27.316Z,2.83
2019-06-10T11:32:57.258Z,3.20
2019-06-10T11:35:22.202Z,3.20
2019-06-10T11:37:50.974Z,3.00
2019-06-10T11:40:17.097Z,3.60
2019-06-10T11:42:44.560Z,3.00
2019-06-10T11:45:12.019Z,2.93
2019-06-10T11:47:39.458Z,3.30
2019-06-10T11:50:06.934Z,2.90
2019-06-10T11:52:35.251Z,3.12
2019-06-10T11:55:11.928Z,3.33
2019-06-10T11:57:32.827Z,3.33
2019-06-10T11:59:59.161Z,3.27
2019-06-10T12:02:25.298Z,3.07
2019-06-10T12:04:53.672Z,3.13
2019-06-10T12:07:22.240Z,2.73
2019-06-10T12:09:48.949Z,2.97
2019-06-10T12:12:15.319Z,3.13
2019-06-10T12:14:43.215Z,3.03
2019-06-10T12:17:34.810Z,3.13
2019-06-10T12:19:38.604Z,2.93
2019-06-10T12:22:07.639Z,2.93
2019-06-10T12:24:34.180Z,3.23
2019-06-10T12:27:04.470Z,2.93
2019-06-10T12:29:28.372Z,3.00
2019-06-10T12:31:58.418Z,2.70
2019-06-10T12:34:23.319Z,3.10
2019-06-10T12:36:56.304Z,3.40
2019-06-10T12:39:18.287Z,3.40
2019-06-10T12:41:45.704Z,3.47
2019-06-10T12:44:13.317Z,3.87
2019-06-10T12:46:42.605Z,5.75
2019-06-10T12:49:08.808Z,3.10
2019-06-10T12:51:35.562Z,2.80
2019-06-10T12:54:06.209Z,2.60
2019-06-10T12:56:32.754Z,2.93
2019-06-10T12:58:59.695Z,2.87
2019-06-10T13:01:26.401Z,2.80
2019-06-10T13:03:54.210Z,2.80
2019-06-10T13:06:23.548Z,2.90
2019-06-10T13:08:48.816Z,2.80
2019-06-10T13:11:16.285Z,2.53
2019-06-10T13:13:43.705Z,2.80
2019-06-10T13:16:14.183Z,2.53
2019-06-10T13:18:38.648Z,2.80
2019-06-10T13:21:11.621Z,3.00
2019-06-10T13:23:35.344Z,2.90
2019-06-10T13:26:07.117Z,3.00
2019-06-10T13:28:28.597Z,2.72
2019-06-10T13:30:57.005Z,2.70
2019-06-10T13:33:23.550Z,2.92
2019-06-10T13:35:53.553Z,2.90
2019-06-10T13:38:18.893Z,3.00
2019-06-10T13:40:46.341Z,3.23
2019-06-10T13:43:13.821Z,2.80
2019-06-10T13:45:43.016Z,2.60
2019-06-10T13:48:11.559Z,2.80
2019-06-10T13:50:36.231Z,2.80
2019-06-10T13:53:05.391Z,2.80
2019-06-10T13:55:32.861Z,3.10
2019-06-10T13:57:59.545Z,2.80
2019-06-10T14:00:40.678Z,2.55
2019-06-10T14:02:53.648Z,2.60
2019-06-10T14:05:22.653Z,2.37
2019-06-10T14:07:49.473Z,3.03
2019-06-10T14:10:18.365Z,2.60
2019-06-10T14:12:48.653Z,2.78
2019-06-10T14:15:15.847Z,2.60
2019-06-10T14:17:39.340Z,3.10
2019-06-10T14:20:08.058Z,2.83
2019-06-10T14:22:34.290Z,2.87
2019-06-10T14:25:03.367Z,2.90
2019-06-10T14:27:29.252Z,3.03
2019-06-10T14:29:56.680Z,2.60
2019-06-10T14:32:24.139Z,2.80
2019-06-10T14:34:52.636Z,2.70
2019-06-10T14:37:34.929Z,2.50
2019-06-10T14:39:47.436Z,2.57
2019-06-10T14:42:16.226Z,2.67
2019-06-10T14:44:42.404Z,2.80
2019-06-10T14:47:11.506Z,2.90
2019-06-10T14:49:38.286Z,2.73
2019-06-10T14:52:07.004Z,2.97
2019-06-10T14:54:33.474Z,2.47
2019-06-10T14:57:02.758Z,3.00
2019-06-10T14:59:28.391Z,2.90
2019-06-10T15:01:55.811Z,2.80
2019-06-10T15:04:23.279Z,2.83
2019-06-10T15:06:53.482Z,3.00
2019-06-10T15:09:18.192Z,2.67
2019-06-10T15:11:45.631Z,4.73
2019-06-10T15:14:15.736Z,4.10
2019-06-10T15:16:40.534Z,7.30
2019-06-10T15:19:14.774Z,4.35
2019-06-10T15:21:35.482Z,2.58
2019-06-10T15:24:03.148Z,2.60
2019-06-10T15:26:32.542Z,3.13
2019-06-10T15:28:57.922Z,2.70
2019-06-10T15:31:25.389Z,2.95
2019-06-10T15:33:52.834Z,2.83
2019-06-10T15:36:21.093Z,2.85
2019-06-10T15:38:48.527Z,2.50
2019-06-10T15:41:18.289Z,2.40
2019-06-10T15:43:43.528Z,2.40
2019-06-10T15:46:12.969Z,2.43
2019-06-10T15:48:38.486Z,2.57
2019-06-10T15:51:05.924Z,2.83
2019-06-10T15:53:33.379Z,2.40
2019-06-10T15:56:29.891Z,2.60
2019-06-10T15:58:28.299Z,2.40
2019-06-10T16:00:55.741Z,2.53
2019-06-10T16:03:25.384Z,2.60
2019-06-10T16:05:52.804Z,2.15
2019-06-10T16:08:20.233Z,2.13
2019-06-10T16:10:46.622Z,2.20
2019-06-10T16:13:14.513Z,2.40
2019-06-10T16:15:43.410Z,2.63
2019-06-10T16:18:09.072Z,2.50
2019-06-10T16:20:38.036Z,2.60
2019-06-10T16:23:05.619Z,2.40
2019-06-10T16:25:33.045Z,2.53
2019-06-10T16:28:02.586Z,2.65
2019-06-10T16:30:27.943Z,2.60
2019-06-10T16:32:55.438Z,2.80
2019-06-10T16:35:23.976Z,2.65
2019-06-10T16:37:54.575Z,2.83
2019-06-10T16:40:19.182Z,2.60
2019-06-10T16:42:46.120Z,3.03
2019-06-10T16:45:13.560Z,2.83
2019-06-10T16:47:43.111Z,2.73
2019-06-10T16:50:08.474Z,2.50
2019-06-10T16:52:35.955Z,2.67
2019-06-10T16:55:03.383Z,3.05
2019-06-10T16:57:33.296Z,2.50
2019-06-10T16:59:58.286Z,3.30
2019-06-10T17:02:26.835Z,2.97
2019-06-10T17:04:53.238Z,3.00
2019-06-10T17:07:20.651Z,2.70
2019-06-10T17:09:48.106Z,2.57
2019-06-10T17:12:15.552Z,2.90
2019-06-10T17:14:43.067Z,2.80
2019-06-10T17:17:12.686Z,2.63
2019-06-10T17:19:38.576Z,2.87
2019-06-10T17:22:06.779Z,3.80
2019-06-10T17:24:34.253Z,2.90
2019-06-10T17:27:02.629Z,2.90
2019-06-10T17:29:30.490Z,2.80
2019-06-10T17:31:56.594Z,3.30
2019-06-10T17:34:25.947Z,3.30
2019-06-10T17:36:53.635Z,3.10
2019-06-10T17:39:18.985Z,2.67
2019-06-10T17:41:46.427Z,3.13
2019-06-10T17:44:13.875Z,3.30
2019-06-10T17:46:42.622Z,2.90
2019-06-10T17:49:08.781Z,2.93
2019-06-10T17:51:36.227Z,3.00
2019-06-10T17:54:03.693Z,3.10
2019-06-10T17:56:31.887Z,2.90
2019-06-10T17:58:58.560Z,3.00
2019-06-10T18:01:27.151Z,3.00
2019-06-10T18:03:53.566Z,2.70
2019-06-10T18:06:22.900Z,2.57
2019-06-10T18:08:48.519Z,3.10
2019-06-10T18:11:15.974Z,3.33
2019-06-10T18:13:43.421Z,2.93
2019-06-10T18:16:13.108Z,3.25
2019-06-10T18:18:38.331Z,3.30
2019-06-10T18:21:05.744Z,2.80
2019-06-10T18:23:33.247Z,2.80
2019-06-10T18:26:02.976Z,3.20
2019-06-10T18:28:29.244Z,3.13
2019-06-10T18:30:55.563Z,3.12
2019-06-10T18:33:23.288Z,3.80
2019-06-10T18:35:53.298Z,3.60
2019-06-10T18:38:18.984Z,3.10
2019-06-10T18:40:46.458Z,3.10
2019-06-10T18:43:13.890Z,3.73
2019-06-10T18:45:41.342Z,3.12
2019-06-10T18:48:09.658Z,3.60
2019-06-10T18:50:38.421Z,3.23
2019-06-10T18:53:04.608Z,3.12
2019-06-10T18:55:35.970Z,3.30
2019-06-10T18:57:59.604Z,3.33
2019-06-10T19:00:43.889Z,3.40
2019-06-10T19:03:09.123Z,3.40
2019-06-10T19:05:22.508Z,3.35
2019-06-10T19:07:49.737Z,3.23
2019-06-10T19:10:17.192Z,3.47
2019-06-10T19:12:44.638Z,3.30
2019-06-10T19:15:12.180Z,3.40
2019-06-10T19:17:40.484Z,3.53
2019-06-10T19:20:07.024Z,3.13
2019-06-10T19:22:35.951Z,3.58
2019-06-10T19:25:03.627Z,3.20
2019-06-10T19:27:30.598Z,3.63
2019-06-10T19:29:57.938Z,3.70
2019-06-10T19:32:25.405Z,3.40
2019-06-10T19:34:52.870Z,3.20
2019-06-10T19:37:22.168Z,3.23
2019-06-10T19:39:51.580Z,3.10
2019-06-10T19:42:15.256Z,3.30
2019-06-10T19:44:44.245Z,3.17
2019-06-10T19:47:12.973Z,3.60
2019-06-10T19:49:38.689Z,4.37
2019-06-10T19:52:06.127Z,4.77
2019-06-10T19:54:34.936Z,4.10
2019-06-10T19:57:02.667Z,4.00
2019-06-10T19:59:28.550Z,4.45
2019-06-10T20:01:56.010Z,3.80
2019-06-10T20:04:23.431Z,3.10
2019-06-10T20:06:53.564Z,3.07
2019-06-10T20:09:18.407Z,3.10
2019-06-10T20:11:47.434Z,2.87
2019-06-10T20:14:13.936Z,3.33
2019-06-10T20:16:44.027Z,3.22
2019-06-10T20:19:08.836Z,3.37
2019-06-10T20:21:36.277Z,3.10
2019-06-10T20:24:03.743Z,3.23
2019-06-10T20:26:32.955Z,3.10
2019-06-10T20:28:59.129Z,3.60
2019-06-10T20:31:26.558Z,2.95
2019-06-10T20:36:27.349Z,3.10
2019-06-10T20:38:54.256Z,3.17
2019-06-10T20:41:21.689Z,3.33
2019-06-10T20:43:49.619Z,3.20
2019-06-10T20:46:16.662Z,2.83
2019-06-10T20:48:45.895Z,3.62
2019-06-10T20:51:12.847Z,3.65
2019-06-10T20:53:40.180Z,3.58
2019-06-10T20:56:06.573Z,3.70
2019-06-10T20:58:34.473Z,3.83
2019-06-10T21:01:04.506Z,3.53
2019-06-10T21:03:32.195Z,3.37
2019-06-10T21:05:57.547Z,3.80
2019-06-10T21:08:25.021Z,3.80
2019-06-10T21:10:54.569Z,3.83
2019-06-10T21:13:19.948Z,3.50
2019-06-10T21:15:50.319Z,4.00
2019-06-10T21:18:14.962Z,3.70
2019-06-10T21:20:46.562Z,3.83
2019-06-10T21:23:13.693Z,4.10
2019-06-10T21:25:37.989Z,3.83
2019-06-10T21:28:05.439Z,3.90
2019-06-10T21:30:41.465Z,4.10
2019-06-10T21:33:03.143Z,3.97
2019-06-10T21:35:28.183Z,3.87
2019-06-10T21:37:55.619Z,4.37
2019-06-10T21:40:23.082Z,5.00
2019-06-10T21:42:52.472Z,5.33
2019-06-10T21:45:17.958Z,5.35
2019-06-10T21:47:45.913Z,5.67
2019-06-10T21:50:12.886Z,5.67
2019-06-10T21:52:42.796Z,5.32
2019-06-10T21:55:07.807Z,5.03
2019-06-10T21:57:35.285Z,4.83
2019-06-10T22:00:10.485Z,5.13
2019-06-10T22:02:32.289Z,5.07
2019-06-10T22:04:57.694Z,5.87
2019-06-10T22:07:25.139Z,5.50
2019-06-10T22:09:54.461Z,5.23
2019-06-10T22:12:20.085Z,4.83
2019-06-10T22:14:48.318Z,5.90
2019-06-10T22:17:15.071Z,5.40
2019-06-10T22:19:42.791Z,5.28
2019-06-10T22:22:10.006Z,5.60
2019-06-10T22:24:38.151Z,4.97
2019-06-10T22:27:05.658Z,5.33
2019-06-10T22:29:33.086Z,4.90
2019-06-10T22:32:02.463Z,5.03
2019-06-10T22:34:27.974Z,4.57
2019-06-10T22:36:57.153Z,4.60
2019-06-10T22:39:22.839Z,4.85
2019-06-10T22:41:53.655Z,5.30
2019-06-10T22:44:17.706Z,5.07
2019-06-10T22:46:45.128Z,4.50
2019-06-10T22:49:13.442Z,4.75
2019-06-10T22:51:42.712Z,5.72
2019-06-10T22:54:07.459Z,5.27
2019-06-10T22:56:34.890Z,5.70
2019-06-10T22:59:03.277Z,6.57
2019-06-10T23:01:37.031Z,7.00
2019-06-10T23:03:57.325Z,7.17
2019-06-10T23:06:24.801Z,6.30
2019-06-10T23:08:54.668Z,6.53
2019-06-10T23:11:19.680Z,6.47
2019-06-10T23:13:48.435Z,7.37
2019-06-10T23:16:14.726Z,7.40
2019-06-10T23:18:42.503Z,7.00
2019-06-10T23:21:09.662Z,7.03
2019-06-10T23:23:37.123Z,7.07
2019-06-10T23:26:04.573Z,7.23
2019-06-10T23:28:33.554Z,7.83
2019-06-10T23:31:04.976Z,7.37
2019-06-10T23:33:29.459Z,7.70
2019-06-10T23:35:56.964Z,7.70
2019-06-10T23:38:24.415Z,7.50
2019-06-10T23:40:52.749Z,7.57
2019-06-10T23:43:19.300Z,8.20
2019-06-10T23:45:46.750Z,8.73
2019-06-10T23:48:14.186Z,7.83
2019-06-10T23:50:43.762Z,8.50
2019-06-10T23:53:09.147Z,8.73
2019-06-10T23:55:36.589Z,8.30
2019-06-10T23:58:04.015Z,9.07
